sensor_id;sensor_type;location;lat;lon;timestamp;pressure;altitude;pressure_sealevel;temperature;humidity
72685;BME280;61365;52.162;4.500;2023-05-17T00:00:17;102521.09;;;11.90;73.13
72685;BME280;61365;52.162;4.500;2023-05-17T00:02:43;102527.13;;;11.84;74.58
72685;BME280;61365;52.162;4.500;2023-05-17T00:05:09;102528.91;;;11.85;73.36
72685;BME280;61365;52.162;4.500;2023-05-17T00:07:36;102527.34;;;11.95;73.20
72685;BME280;61365;52.162;4.500;2023-05-17T00:10:02;102529.97;;;11.93;74.26
72685;BME280;61365;52.162;4.500;2023-05-17T00:12:28;102524.78;;;11.96;73.57
72685;BME280;61365;52.162;4.500;2023-05-17T00:14:55;102533.53;;;11.97;73.87
72685;BME280;61365;52.162;4.500;2023-05-17T00:17:21;102531.69;;;11.93;74.34
72685;BME280;61365;52.162;4.500;2023-05-17T00:19:47;102535.16;;;11.90;74.78
72685;BME280;61365;52.162;4.500;2023-05-17T00:22:13;102521.25;;;11.96;74.20
72685;BME280;61365;52.162;4.500;2023-05-17T00:24:39;102524.91;;;12.02;74.86
72685;BME280;61365;52.162;4.500;2023-05-17T00:27:05;102522.16;;;11.98;74.34
72685;BME280;61365;52.162;4.500;2023-05-17T00:29:31;102525.66;;;11.97;74.13
72685;BME280;61365;52.162;4.500;2023-05-17T00:31:58;102527.47;;;11.99;74.14
72685;BME280;61365;52.162;4.500;2023-05-17T00:34:24;102535.88;;;11.81;75.24
72685;BME280;61365;52.162;4.500;2023-05-17T00:36:50;102529.13;;;11.96;73.97
72685;BME280;61365;52.162;4.500;2023-05-17T00:39:16;102524.44;;;11.79;75.43
72685;BME280;61365;52.162;4.500;2023-05-17T00:41:42;102519.13;;;11.78;75.77
72685;BME280;61365;52.162;4.500;2023-05-17T00:44:08;102514.81;;;11.81;75.64
72685;BME280;61365;52.162;4.500;2023-05-17T00:46:34;102528.84;;;11.82;75.11
72685;BME280;61365;52.162;4.500;2023-05-17T00:49:00;102529.03;;;11.50;75.62
72685;BME280;61365;52.162;4.500;2023-05-17T00:51:27;102526.47;;;11.53;76.07
72685;BME280;61365;52.162;4.500;2023-05-17T00:53:54;102529.19;;;11.56;76.42
72685;BME280;61365;52.162;4.500;2023-05-17T00:56:20;102524.31;;;11.75;75.77
72685;BME280;61365;52.162;4.500;2023-05-17T00:58:46;102531.00;;;11.59;75.55
72685;BME280;61365;52.162;4.500;2023-05-17T01:01:12;102530.41;;;11.74;75.34
72685;BME280;61365;52.162;4.500;2023-05-17T01:03:39;102533.03;;;11.72;75.76
72685;BME280;61365;52.162;4.500;2023-05-17T01:06:05;102521.72;;;11.76;75.21
72685;BME280;61365;52.162;4.500;2023-05-17T01:08:31;102521.00;;;11.83;75.68
72685;BME280;61365;52.162;4.500;2023-05-17T01:11:47;102517.31;;;11.75;75.79
72685;BME280;61365;52.162;4.500;2023-05-17T01:17:05;102515.47;;;11.69;76.15
72685;BME280;61365;52.162;4.500;2023-05-17T01:19:49;102520.66;;;11.66;76.31
72685;BME280;61365;52.162;4.500;2023-05-17T01:22:42;102523.44;;;11.76;75.86
72685;BME280;61365;52.162;4.500;2023-05-17T01:28:22;102526.28;;;11.85;75.79
72685;BME280;61365;52.162;4.500;2023-05-17T01:30:50;102529.72;;;11.81;74.82
72685;BME280;61365;52.162;4.500;2023-05-17T01:33:17;102529.72;;;11.81;75.84
72685;BME280;61365;52.162;4.500;2023-05-17T01:35:44;102526.28;;;11.83;75.18
72685;BME280;61365;52.162;4.500;2023-05-17T01:38:10;102516.59;;;11.82;76.07
72685;BME280;61365;52.162;4.500;2023-05-17T01:40:38;102524.31;;;11.75;76.64
72685;BME280;61365;52.162;4.500;2023-05-17T01:43:16;102521.00;;;11.83;75.81
72685;BME280;61365;52.162;4.500;2023-05-17T01:45:52;102520.97;;;11.82;74.78
72685;BME280;61365;52.162;4.500;2023-05-17T01:48:34;102517.81;;;11.57;75.69
72685;BME280;61365;52.162;4.500;2023-05-17T01:51:04;102526.47;;;11.51;76.46
72685;BME280;61365;52.162;4.500;2023-05-17T01:53:37;102536.94;;;11.91;75.38
72685;BME280;61365;52.162;4.500;2023-05-17T01:56:12;102527.34;;;11.93;75.87
72685;BME280;61365;52.162;4.500;2023-05-17T01:58:44;102530.94;;;11.98;74.96
72685;BME280;61365;52.162;4.500;2023-05-17T02:01:12;102531.09;;;12.05;74.81
72685;BME280;61365;52.162;4.500;2023-05-17T02:03:40;102528.06;;;11.86;74.94
72685;BME280;61365;52.162;4.500;2023-05-17T02:06:06;102526.28;;;11.83;76.08
72685;BME280;61365;52.162;4.500;2023-05-17T02:08:32;102529.13;;;11.96;74.81
72685;BME280;61365;52.162;4.500;2023-05-17T02:10:58;102523.81;;;11.93;75.18
72685;BME280;61365;52.162;4.500;2023-05-17T02:13:25;102523.84;;;11.94;76.33
72685;BME280;61365;52.162;4.500;2023-05-17T02:15:51;102529.00;;;11.88;75.52
72685;BME280;61365;52.162;4.500;2023-05-17T02:18:17;102525.41;;;11.84;76.07
72685;BME280;61365;52.162;4.500;2023-05-17T02:20:46;102524.50;;;11.84;75.85
72685;BME280;61365;52.162;4.500;2023-05-17T02:23:12;102525.66;;;11.98;74.73
72685;BME280;61365;52.162;4.500;2023-05-17T02:25:38;102531.53;;;11.83;76.09
72685;BME280;61365;52.162;4.500;2023-05-17T02:28:04;102524.66;;;11.92;76.07
72685;BME280;61365;52.162;4.500;2023-05-17T02:30:31;102529.44;;;12.08;74.97
72685;BME280;61365;52.162;4.500;2023-05-17T02:32:57;102538.06;;;12.01;75.75
72685;BME280;61365;52.162;4.500;2023-05-17T02:35:23;102538.06;;;12.01;75.99
72685;BME280;61365;52.162;4.500;2023-05-17T02:37:50;102539.56;;;11.91;76.18
72685;BME280;61365;52.162;4.500;2023-05-17T02:40:16;102537.31;;;12.08;74.86
72685;BME280;61365;52.162;4.500;2023-05-17T02:42:42;102542.53;;;12.05;75.95
72685;BME280;61365;52.162;4.500;2023-05-17T02:45:09;102538.66;;;11.91;75.17
72685;BME280;61365;52.162;4.500;2023-05-17T02:47:35;102532.59;;;11.93;75.29
72685;BME280;61365;52.162;4.500;2023-05-17T02:50:01;102539.66;;;11.96;75.20
72685;BME280;61365;52.162;4.500;2023-05-17T02:52:27;102543.56;;;11.72;76.62
72685;BME280;61365;52.162;4.500;2023-05-17T02:54:54;102540.06;;;11.73;76.83
72685;BME280;61365;52.162;4.500;2023-05-17T02:57:20;102547.56;;;11.96;75.61
72685;BME280;61365;52.162;4.500;2023-05-17T02:59:46;102541.13;;;11.81;75.59
72685;BME280;61365;52.162;4.500;2023-05-17T03:02:12;102544.16;;;12.00;75.60
72685;BME280;61365;52.162;4.500;2023-05-17T03:04:38;102549.09;;;11.86;75.94
72685;BME280;61365;52.162;4.500;2023-05-17T03:07:04;102552.19;;;12.06;74.82
72685;BME280;61365;52.162;4.500;2023-05-17T03:09:31;102545.38;;;12.16;74.53
72685;BME280;61365;52.162;4.500;2023-05-17T03:11:57;102547.75;;;12.04;75.05
72685;BME280;61365;52.162;4.500;2023-05-17T03:14:23;102557.25;;;11.98;74.34
72685;BME280;61365;52.162;4.500;2023-05-17T03:16:49;102554.84;;;11.68;74.63
72685;BME280;61365;52.162;4.500;2023-05-17T03:19:15;102553.78;;;11.99;73.03
72685;BME280;61365;52.162;4.500;2023-05-17T03:21:42;102547.47;;;11.93;73.14
72685;BME280;61365;52.162;4.500;2023-05-17T03:24:08;102557.84;;;11.83;72.41
72685;BME280;61365;52.162;4.500;2023-05-17T03:26:34;102556.16;;;11.87;72.48
72685;BME280;61365;52.162;4.500;2023-05-17T03:29:00;102550.13;;;11.53;73.58
72685;BME280;61365;52.162;4.500;2023-05-17T03:31:26;102558.25;;;11.64;71.88
72685;BME280;61365;52.162;4.500;2023-05-17T03:33:52;102561.34;;;11.44;72.76
72685;BME280;61365;52.162;4.500;2023-05-17T03:36:18;102568.22;;;11.39;73.21
72685;BME280;61365;52.162;4.500;2023-05-17T03:38:44;102560.72;;;11.56;71.39
72685;BME280;61365;52.162;4.500;2023-05-17T03:41:11;102571.66;;;11.35;71.36
72685;BME280;61365;52.162;4.500;2023-05-17T03:43:37;102563.56;;;11.27;71.56
72685;BME280;61365;52.162;4.500;2023-05-17T03:46:03;102574.75;;;11.18;72.20
72685;BME280;61365;52.162;4.500;2023-05-17T03:48:30;102575.78;;;11.25;71.69
72685;BME280;61365;52.162;4.500;2023-05-17T03:50:56;102573.34;;;11.33;70.86
72685;BME280;61365;52.162;4.500;2023-05-17T03:53:23;102574.06;;;11.27;70.86
72685;BME280;61365;52.162;4.500;2023-05-17T03:55:49;102585.16;;;11.14;71.90
72685;BME280;61365;52.162;4.500;2023-05-17T03:58:15;102583.56;;;11.20;70.97
72685;BME280;61365;52.162;4.500;2023-05-17T04:00:41;102590.75;;;10.92;72.37
72685;BME280;61365;52.162;4.500;2023-05-17T04:03:07;102596.28;;;11.03;71.99
72685;BME280;61365;52.162;4.500;2023-05-17T04:05:33;102591.88;;;11.02;71.65
72685;BME280;61365;52.162;4.500;2023-05-17T04:08:00;102599.31;;;10.85;72.31
72685;BME280;61365;52.162;4.500;2023-05-17T04:10:26;102598.97;;;11.06;71.50
72685;BME280;61365;52.162;4.500;2023-05-17T04:12:52;102595.06;;;11.25;70.89
72685;BME280;61365;52.162;4.500;2023-05-17T04:15:18;102600.41;;;11.29;70.43
72685;BME280;61365;52.162;4.500;2023-05-17T04:17:44;102604.31;;;11.45;70.53
72685;BME280;61365;52.162;4.500;2023-05-17T04:20:10;102603.66;;;11.95;68.46
72685;BME280;61365;52.162;4.500;2023-05-17T04:22:37;102599.84;;;12.20;67.45
72685;BME280;61365;52.162;4.500;2023-05-17T04:25:03;102615.56;;;12.61;66.07
72685;BME280;61365;52.162;4.500;2023-05-17T04:27:29;102613.63;;;12.99;64.40
72685;BME280;61365;52.162;4.500;2023-05-17T04:29:56;102621.03;;;13.21;63.33
72685;BME280;61365;52.162;4.500;2023-05-17T04:32:22;102621.44;;;13.46;62.02
72685;BME280;61365;52.162;4.500;2023-05-17T04:34:48;102627.81;;;13.62;61.61
72685;BME280;61365;52.162;4.500;2023-05-17T04:37:16;102625.47;;;13.81;61.37
72685;BME280;61365;52.162;4.500;2023-05-17T04:39:42;102639.84;;;14.03;60.64
72685;BME280;61365;52.162;4.500;2023-05-17T04:42:09;102637.63;;;14.37;59.28
72685;BME280;61365;52.162;4.500;2023-05-17T04:44:35;102646.66;;;14.56;57.99
72685;BME280;61365;52.162;4.500;2023-05-17T04:47:01;102651.34;;;14.79;57.07
72685;BME280;61365;52.162;4.500;2023-05-17T04:49:28;102654.91;;;14.83;56.52
72685;BME280;61365;52.162;4.500;2023-05-17T04:51:54;102647.66;;;14.68;57.73
72685;BME280;61365;52.162;4.500;2023-05-17T04:54:21;102655.97;;;15.04;56.35
72685;BME280;61365;52.162;4.500;2023-05-17T04:56:47;102655.25;;;15.22;56.26
72685;BME280;61365;52.162;4.500;2023-05-17T04:59:13;102652.94;;;15.62;54.93
72685;BME280;61365;52.162;4.500;2023-05-17T05:01:39;102661.59;;;15.42;55.35
72685;BME280;61365;52.162;4.500;2023-05-17T05:04:05;102663.31;;;15.36;55.10
72685;BME280;61365;52.162;4.500;2023-05-17T05:06:32;102663.84;;;16.12;52.27
72685;BME280;61365;52.162;4.500;2023-05-17T05:08:59;102663.50;;;15.60;54.14
72685;BME280;61365;52.162;4.500;2023-05-17T05:11:25;102669.13;;;16.05;53.39
72685;BME280;61365;52.162;4.500;2023-05-17T05:13:52;102676.13;;;15.97;53.30
72685;BME280;61365;52.162;4.500;2023-05-17T05:16:18;102676.44;;;15.26;53.96
72685;BME280;61365;52.162;4.500;2023-05-17T05:18:44;102676.75;;;15.62;54.89
72685;BME280;61365;52.162;4.500;2023-05-17T05:21:10;102678.91;;;16.25;50.95
72685;BME280;61365;52.162;4.500;2023-05-17T05:23:36;102682.56;;;16.57;50.11
72685;BME280;61365;52.162;4.500;2023-05-17T05:26:02;102684.22;;;16.25;51.06
72685;BME280;61365;52.162;4.500;2023-05-17T05:28:29;102694.00;;;16.35;50.34
72685;BME280;61365;52.162;4.500;2023-05-17T05:30:56;102688.72;;;16.39;50.05
72685;BME280;61365;52.162;4.500;2023-05-17T05:33:24;102686.88;;;16.30;49.45
72685;BME280;61365;52.162;4.500;2023-05-17T05:35:50;102690.28;;;16.02;49.99
72685;BME280;61365;52.162;4.500;2023-05-17T05:38:16;102696.44;;;15.97;50.44
72685;BME280;61365;52.162;4.500;2023-05-17T05:40:44;102700.59;;;15.68;51.57
72685;BME280;61365;52.162;4.500;2023-05-17T05:43:12;102700.09;;;16.20;49.84
72685;BME280;61365;52.162;4.500;2023-05-17T05:45:39;102706.91;;;15.84;51.78
72685;BME280;61365;52.162;4.500;2023-05-17T05:48:12;102702.78;;;16.28;49.20
72685;BME280;61365;52.162;4.500;2023-05-17T05:50:40;102714.09;;;15.99;50.93
72685;BME280;61365;52.162;4.500;2023-05-17T05:53:10;102718.53;;;16.03;52.15
72685;BME280;61365;52.162;4.500;2023-05-17T05:55:40;102718.03;;;16.93;48.04
72685;BME280;61365;52.162;4.500;2023-05-17T05:58:07;102712.72;;;16.90;49.12
72685;BME280;61365;52.162;4.500;2023-05-17T06:00:33;102724.22;;;16.95;49.19
72685;BME280;61365;52.162;4.500;2023-05-17T06:03:00;102725.16;;;17.17;46.90
72685;BME280;61365;52.162;4.500;2023-05-17T06:05:26;102727.81;;;17.02;47.59
72685;BME280;61365;52.162;4.500;2023-05-17T06:07:52;102732.03;;;16.58;47.30
72685;BME280;61365;52.162;4.500;2023-05-17T06:10:18;102732.91;;;16.50;47.74
72685;BME280;61365;52.162;4.500;2023-05-17T06:12:44;102725.00;;;16.67;48.29
72685;BME280;61365;52.162;4.500;2023-05-17T06:15:10;102730.50;;;17.28;46.28
72685;BME280;61365;52.162;4.500;2023-05-17T06:17:37;102734.72;;;16.59;47.36
72685;BME280;61365;52.162;4.500;2023-05-17T06:20:03;102738.06;;;16.23;48.32
72685;BME280;61365;52.162;4.500;2023-05-17T06:22:29;102741.81;;;16.65;47.41
72685;BME280;61365;52.162;4.500;2023-05-17T06:24:55;102739.34;;;17.13;49.30
72685;BME280;61365;52.162;4.500;2023-05-17T06:27:21;102741.16;;;17.75;45.07
72685;BME280;61365;52.162;4.500;2023-05-17T06:29:47;102740.25;;;17.48;48.15
72685;BME280;61365;52.162;4.500;2023-05-17T06:32:14;102746.41;;;18.15;43.91
72685;BME280;61365;52.162;4.500;2023-05-17T06:34:40;102745.53;;;17.17;46.72
72685;BME280;61365;52.162;4.500;2023-05-17T06:37:06;102747.94;;;16.58;47.42
72685;BME280;61365;52.162;4.500;2023-05-17T06:39:32;102746.22;;;16.64;48.86
72685;BME280;61365;52.162;4.500;2023-05-17T06:41:58;102746.09;;;16.43;48.60
72685;BME280;61365;52.162;4.500;2023-05-17T06:44:24;102745.00;;;16.05;49.30
72685;BME280;61365;52.162;4.500;2023-05-17T06:46:50;102751.19;;;16.02;52.48
72685;BME280;61365;52.162;4.500;2023-05-17T06:49:16;102753.72;;;15.90;54.17
72685;BME280;61365;52.162;4.500;2023-05-17T06:51:43;102754.00;;;16.30;52.44
72685;BME280;61365;52.162;4.500;2023-05-17T06:54:09;102769.56;;;15.84;50.71
72685;BME280;61365;52.162;4.500;2023-05-17T06:56:35;102760.69;;;15.80;49.32
72685;BME280;61365;52.162;4.500;2023-05-17T06:59:01;102763.81;;;16.48;49.92
72685;BME280;61365;52.162;4.500;2023-05-17T07:01:27;102756.84;;;16.74;47.14
72685;BME280;61365;52.162;4.500;2023-05-17T07:03:53;102771.03;;;16.79;46.90
72685;BME280;61365;52.162;4.500;2023-05-17T07:06:19;102770.75;;;16.26;52.22
72685;BME280;61365;52.162;4.500;2023-05-17T07:08:45;102770.09;;;16.74;47.40
72685;BME280;61365;52.162;4.500;2023-05-17T07:11:12;102781.44;;;16.40;49.14
72685;BME280;61365;52.162;4.500;2023-05-17T07:13:38;102781.63;;;16.84;46.00
72685;BME280;61365;52.162;4.500;2023-05-17T07:16:06;102783.59;;;17.36;46.31
72685;BME280;61365;52.162;4.500;2023-05-17T07:18:33;102783.53;;;17.16;47.01
72685;BME280;61365;52.162;4.500;2023-05-17T07:20:59;102787.09;;;17.30;44.94
72685;BME280;61365;52.162;4.500;2023-05-17T07:23:25;102784.41;;;17.04;47.33
72685;BME280;61365;52.162;4.500;2023-05-17T07:25:51;102786.25;;;17.45;46.20
72685;BME280;61365;52.162;4.500;2023-05-17T07:28:17;102786.09;;;16.91;44.71
72685;BME280;61365;52.162;4.500;2023-05-17T07:30:43;102787.13;;;17.39;48.56
72685;BME280;61365;52.162;4.500;2023-05-17T07:33:09;102792.91;;;16.34;47.27
72685;BME280;61365;52.162;4.500;2023-05-17T07:35:36;102800.31;;;17.08;47.75
72685;BME280;61365;52.162;4.500;2023-05-17T07:38:02;102796.00;;;17.40;48.29
72685;BME280;61365;52.162;4.500;2023-05-17T07:40:28;102808.38;;;17.55;43.26
72685;BME280;61365;52.162;4.500;2023-05-17T07:42:54;102803.03;;;17.36;42.12
72685;BME280;61365;52.162;4.500;2023-05-17T07:45:20;102811.94;;;17.69;43.11
72685;BME280;61365;52.162;4.500;2023-05-17T07:47:46;102810.22;;;18.03;42.49
72685;BME280;61365;52.162;4.500;2023-05-17T07:50:13;102819.88;;;17.54;42.08
72685;BME280;61365;52.162;4.500;2023-05-17T07:52:39;102821.66;;;17.55;42.22
72685;BME280;61365;52.162;4.500;2023-05-17T07:55:05;102811.91;;;17.52;41.68
72685;BME280;61365;52.162;4.500;2023-05-17T07:57:32;102827.59;;;16.83;46.41
72685;BME280;61365;52.162;4.500;2023-05-17T07:59:58;102825.09;;;17.12;43.69
72685;BME280;61365;52.162;4.500;2023-05-17T08:02:25;102819.66;;;16.89;45.79
72685;BME280;61365;52.162;4.500;2023-05-17T08:04:51;102817.75;;;16.58;48.26
72685;BME280;61365;52.162;4.500;2023-05-17T08:07:17;102826.06;;;17.51;42.70
72685;BME280;61365;52.162;4.500;2023-05-17T08:09:43;102825.09;;;17.12;45.09
72685;BME280;61365;52.162;4.500;2023-05-17T08:12:10;102820.75;;;17.44;41.48
72685;BME280;61365;52.162;4.500;2023-05-17T08:14:36;102829.56;;;17.33;41.96
72685;BME280;61365;52.162;4.500;2023-05-17T08:17:04;102822.53;;;17.40;44.98
72685;BME280;61365;52.162;4.500;2023-05-17T08:19:30;102832.34;;;18.02;42.05
72685;BME280;61365;52.162;4.500;2023-05-17T08:21:56;102823.44;;;17.92;42.32
72685;BME280;61365;52.162;4.500;2023-05-17T08:24:23;102827.88;;;17.59;43.64
72685;BME280;61365;52.162;4.500;2023-05-17T08:26:49;102835.88;;;17.99;40.14
72685;BME280;61365;52.162;4.500;2023-05-17T08:29:15;102836.63;;;17.31;42.12
72685;BME280;61365;52.162;4.500;2023-05-17T08:31:42;102829.59;;;17.47;42.39
72685;BME280;61365;52.162;4.500;2023-05-17T08:34:08;102832.28;;;17.60;45.32
72685;BME280;61365;52.162;4.500;2023-05-17T08:36:34;102826.97;;;17.60;41.73
72685;BME280;61365;52.162;4.500;2023-05-17T08:39:00;102830.53;;;17.73;43.21
72685;BME280;61365;52.162;4.500;2023-05-17T08:41:26;102824.31;;;17.83;41.63
72685;BME280;61365;52.162;4.500;2023-05-17T08:43:52;102833.22;;;18.16;43.04
72685;BME280;61365;52.162;4.500;2023-05-17T08:46:21;102841.16;;;18.38;44.90
72685;BME280;61365;52.162;4.500;2023-05-17T08:48:48;102842.06;;;18.27;42.05
72685;BME280;61365;52.162;4.500;2023-05-17T08:51:16;102836.75;;;18.38;41.15
72685;BME280;61365;52.162;4.500;2023-05-17T08:53:46;102823.47;;;18.01;42.70
72685;BME280;61365;52.162;4.500;2023-05-17T08:56:15;102834.97;;;18.20;42.81
72685;BME280;61365;52.162;4.500;2023-05-17T08:58:43;102828.78;;;18.06;43.12
72685;BME280;61365;52.162;4.500;2023-05-17T09:01:12;102829.66;;;17.89;42.54
72685;BME280;61365;52.162;4.500;2023-05-17T09:03:39;102835.84;;;17.82;43.08
72685;BME280;61365;52.162;4.500;2023-05-17T09:06:07;102832.28;;;17.80;46.58
72685;BME280;61365;52.162;4.500;2023-05-17T09:08:36;102831.47;;;18.13;40.91
72685;BME280;61365;52.162;4.500;2023-05-17T09:11:02;102838.53;;;17.90;46.52
72685;BME280;61365;52.162;4.500;2023-05-17T09:13:29;102847.38;;;17.78;43.85
72685;BME280;61365;52.162;4.500;2023-05-17T09:15:55;102846.47;;;17.80;45.08
72685;BME280;61365;52.162;4.500;2023-05-17T09:18:30;102839.38;;;17.71;44.94
72685;BME280;61365;52.162;4.500;2023-05-17T09:21:00;102842.97;;;18.20;47.02
72685;BME280;61365;52.162;4.500;2023-05-17T09:23:31;102845.41;;;18.93;38.89
72685;BME280;61365;52.162;4.500;2023-05-17T09:26:05;102841.16;;;18.27;41.67
72685;BME280;61365;52.162;4.500;2023-05-17T09:28:40;102841.03;;;18.89;41.52
72685;BME280;61365;52.162;4.500;2023-05-17T09:31:07;102840.28;;;18.37;40.23
72685;BME280;61365;52.162;4.500;2023-05-17T09:33:41;102839.34;;;18.60;38.47
72685;BME280;61365;52.162;4.500;2023-05-17T09:36:18;102831.34;;;18.65;39.02
72685;BME280;61365;52.162;4.500;2023-05-17T09:38:54;102839.28;;;18.77;39.99
72685;BME280;61365;52.162;4.500;2023-05-17T09:41:26;102839.28;;;18.69;42.65
72685;BME280;61365;52.162;4.500;2023-05-17T09:44:01;102840.22;;;18.59;38.29
72685;BME280;61365;52.162;4.500;2023-05-17T09:46:31;102840.28;;;17.95;41.08
72685;BME280;61365;52.162;4.500;2023-05-17T09:49:02;102850.00;;;17.95;48.32
72685;BME280;61365;52.162;4.500;2023-05-17T09:51:32;102852.69;;;18.15;39.00
72685;BME280;61365;52.162;4.500;2023-05-17T09:54:00;102846.50;;;18.22;40.40
72685;BME280;61365;52.162;4.500;2023-05-17T09:56:27;102849.13;;;18.21;42.62
72685;BME280;61365;52.162;4.500;2023-05-17T09:58:54;102847.31;;;18.57;41.62
72685;BME280;61365;52.162;4.500;2023-05-17T10:01:20;102850.88;;;17.67;43.26
72685;BME280;61365;52.162;4.500;2023-05-17T10:03:50;102854.47;;;18.21;40.20
72685;BME280;61365;52.162;4.500;2023-05-17T10:06:16;102859.78;;;18.04;43.42
72685;BME280;61365;52.162;4.500;2023-05-17T10:08:45;102859.78;;;18.02;41.64
72685;BME280;61365;52.162;4.500;2023-05-17T10:11:21;102854.44;;;17.73;41.67
72685;BME280;61365;52.162;4.500;2023-05-17T10:16:53;102847.34;;;17.71;42.80
72685;BME280;61365;52.162;4.500;2023-05-17T10:19:19;102855.31;;;17.93;43.33
72685;BME280;61365;52.162;4.500;2023-05-17T10:21:46;102860.66;;;18.16;43.28
72685;BME280;61365;52.162;4.500;2023-05-17T10:24:14;102860.56;;;17.53;44.19
72685;BME280;61365;52.162;4.500;2023-05-17T10:26:41;102870.31;;;17.48;42.27
72685;BME280;61365;52.162;4.500;2023-05-17T10:29:07;102857.88;;;17.33;47.97
72685;BME280;61365;52.162;4.500;2023-05-17T10:31:34;102867.69;;;17.82;42.66
72685;BME280;61365;52.162;4.500;2023-05-17T10:34:04;102860.59;;;17.50;45.21
72685;BME280;61365;52.162;4.500;2023-05-17T10:36:31;102857.06;;;17.71;46.17
72685;BME280;61365;52.162;4.500;2023-05-17T10:38:58;102861.50;;;17.70;43.47
72685;BME280;61365;52.162;4.500;2023-05-17T10:41:29;102861.47;;;17.50;46.85
72685;BME280;61365;52.162;4.500;2023-05-17T10:43:57;102861.53;;;17.91;47.50
72685;BME280;61365;52.162;4.500;2023-05-17T10:46:25;102866.88;;;18.00;46.06
72685;BME280;61365;52.162;4.500;2023-05-17T10:48:56;102860.66;;;18.16;44.41
72685;BME280;61365;52.162;4.500;2023-05-17T10:51:29;102865.94;;;17.85;43.65
72685;BME280;61365;52.162;4.500;2023-05-17T10:54:12;102872.97;;;17.60;49.29
72685;BME280;61365;52.162;4.500;2023-05-17T10:56:47;102863.28;;;17.87;44.86
72685;BME280;61365;52.162;4.500;2023-05-17T10:59:15;102857.09;;;17.94;48.74
72685;BME280;61365;52.162;4.500;2023-05-17T11:01:50;102861.53;;;17.91;43.64
72685;BME280;61365;52.162;4.500;2023-05-17T11:04:24;102862.31;;;17.41;45.90
72685;BME280;61365;52.162;4.500;2023-05-17T11:06:52;102868.59;;;17.76;42.85
72685;BME280;61365;52.162;4.500;2023-05-17T11:09:20;102865.97;;;18.04;42.29
72685;BME280;61365;52.162;4.500;2023-05-17T11:12:04;102869.50;;;17.88;43.33
72685;BME280;61365;52.162;4.500;2023-05-17T11:15:04;102879.13;;;17.42;45.21
72685;BME280;61365;52.162;4.500;2023-05-17T11:17:24;102876.47;;;17.45;42.23
72685;BME280;61365;52.162;4.500;2023-05-17T11:22:24;102880.81;;;17.17;45.22
72685;BME280;61365;52.162;4.500;2023-05-17T11:24:55;102869.31;;;17.19;43.19
72685;BME280;61365;52.162;4.500;2023-05-17T11:27:22;102867.59;;;17.29;46.75
72685;BME280;61365;52.162;4.500;2023-05-17T11:29:55;102873.72;;;17.17;41.89
72685;BME280;61365;52.162;4.500;2023-05-17T11:32:27;102864.69;;;16.78;45.44
72685;BME280;61365;52.162;4.500;2023-05-17T11:34:53;102866.63;;;17.08;47.72
72685;BME280;61365;52.162;4.500;2023-05-17T11:37:27;102870.19;;;17.12;42.72
72685;BME280;61365;52.162;4.500;2023-05-17T11:40:04;102881.69;;;17.11;49.42
72685;BME280;61365;52.162;4.500;2023-05-17T11:42:32;102870.81;;;16.64;43.34
72685;BME280;61365;52.162;4.500;2023-05-17T11:45:00;102872.69;;;16.89;46.70
72685;BME280;61365;52.162;4.500;2023-05-17T11:47:27;102866.63;;;17.08;48.34
72685;BME280;61365;52.162;4.500;2023-05-17T11:49:54;102862.28;;;17.26;43.49
72685;BME280;61365;52.162;4.500;2023-05-17T11:52:24;102846.41;;;17.37;44.48
72685;BME280;61365;52.162;4.500;2023-05-17T11:54:52;102854.34;;;17.38;42.09
72685;BME280;61365;52.162;4.500;2023-05-17T11:57:19;102867.59;;;17.31;44.72
72685;BME280;61365;52.162;4.500;2023-05-17T11:59:47;102864.00;;;17.16;42.28
72685;BME280;61365;52.162;4.500;2023-05-17T12:02:28;102862.00;;;16.72;42.91
72685;BME280;61365;52.162;4.500;2023-05-17T12:04:55;102860.94;;;16.39;46.39
72685;BME280;61365;52.162;4.500;2023-05-17T12:07:22;102859.44;;;16.93;45.01
72685;BME280;61365;52.162;4.500;2023-05-17T12:09:50;102847.97;;;16.90;45.63
72685;BME280;61365;52.162;4.500;2023-05-17T12:12:17;102851.44;;;16.78;46.02
72685;BME280;61365;52.162;4.500;2023-05-17T12:14:46;102858.41;;;16.57;43.70
72685;BME280;61365;52.162;4.500;2023-05-17T12:17:30;102856.56;;;16.50;49.11
72685;BME280;61365;52.162;4.500;2023-05-17T12:20:07;102861.19;;;16.84;44.67
72685;BME280;61365;52.162;4.500;2023-05-17T12:22:34;102847.16;;;16.99;49.44
72685;BME280;61365;52.162;4.500;2023-05-17T12:25:19;102848.84;;;16.89;45.53
72685;BME280;61365;52.162;4.500;2023-05-17T12:27:50;102855.78;;;16.63;47.52
72685;BME280;61365;52.162;4.500;2023-05-17T12:30:17;102851.44;;;16.79;44.63
72685;BME280;61365;52.162;4.500;2023-05-17T12:32:43;102848.81;;;16.86;47.83
72685;BME280;61365;52.162;4.500;2023-05-17T12:35:11;102851.41;;;16.75;44.22
72685;BME280;61365;52.162;4.500;2023-05-17T12:37:37;102849.50;;;16.54;46.97
72685;BME280;61365;52.162;4.500;2023-05-17T12:40:04;102849.66;;;16.77;43.69
72685;BME280;61365;52.162;4.500;2023-05-17T12:42:32;102837.72;;;16.08;45.83
72685;BME280;61365;52.162;4.500;2023-05-17T12:44:58;102847.69;;;16.43;46.73
72685;BME280;61365;52.162;4.500;2023-05-17T12:47:29;102850.41;;;16.54;44.77
72685;BME280;61365;52.162;4.500;2023-05-17T12:49:56;102842.50;;;16.62;43.89
72685;BME280;61365;52.162;4.500;2023-05-17T12:52:24;102830.16;;;16.65;48.35
72685;BME280;61365;52.162;4.500;2023-05-17T12:54:51;102840.91;;;16.92;46.54
72685;BME280;61365;52.162;4.500;2023-05-17T12:57:17;102843.44;;;16.70;44.39
72685;BME280;61365;52.162;4.500;2023-05-17T12:59:46;102840.47;;;16.22;44.54
72685;BME280;61365;52.162;4.500;2023-05-17T13:02:13;102844.28;;;16.63;48.64
72685;BME280;61365;52.162;4.500;2023-05-17T13:04:40;102842.53;;;16.65;44.38